sensor_id;sensor_type;location;lat;lon;timestamp;P1;durP1;ratioP1;P2;durP2;ratioP2
3849;SDS011;1940;51.052;13.678;2023-09-19T00:01:05;3.50;;;2.13;;
3849;SDS011;1940;51.052;13.678;2023-09-19T00:03:37;3.57;;;2.10;;
3849;SDS011;1940;51.052;13.678;2023-09-19T00:06:03;6.60;;;2.30;;
3849;SDS011;1940;51.052;13.678;2023-09-19T00:08:33;11.23;;;2.30;;
3849;SDS011;1940;51.052;13.678;2023-09-19T00:10:58;3.43;;;2.00;;
3849;SDS011;1940;51.052;13.678;2023-09-19T00:13:31;2.97;;;1.70;;
3849;SDS011;1940;51.052;13.678;2023-09-19T00:15:57;2.90;;;1.80;;
3849;SDS011;1940;51.052;13.678;2023-09-19T00:18:24;3.13;;;1.80;;
3849;SDS011;1940;51.052;13.678;2023-09-19T00:21:00;4.57;;;1.90;;
3849;SDS011;1940;51.052;13.678;2023-09-19T00:23:26;2.97;;;1.90;;
3849;SDS011;1940;51.052;13.678;2023-09-19T00:25:53;11.17;;;2.10;;
3849;SDS011;1940;51.052;13.678;2023-09-19T00:28:22;4.17;;;2.10;;
3849;SDS011;1940;51.052;13.678;2023-09-19T00:30:47;5.70;;;2.20;;
3849;SDS011;1940;51.052;13.678;2023-09-19T00:33:16;5.93;;;2.27;;
3849;SDS011;1940;51.052;13.678;2023-09-19T00:38:14;4.30;;;2.10;;
3849;SDS011;1940;51.052;13.678;2023-09-19T00:40:45;2.80;;;1.83;;
3849;SDS011;1940;51.052;13.678;2023-09-19T00:43:11;4.70;;;2.37;;
3849;SDS011;1940;51.052;13.678;2023-09-19T00:45:37;6.83;;;2.20;;
3849;SDS011;1940;51.052;13.678;2023-09-19T00:48:07;4.30;;;2.30;;
3849;SDS011;1940;51.052;13.678;2023-09-19T00:50:34;14.07;;;2.50;;
3849;SDS011;1940;51.052;13.678;2023-09-19T00:53:01;6.00;;;2.33;;
3849;SDS011;1940;51.052;13.678;2023-09-19T00:55:34;7.13;;;2.57;;
3849;SDS011;1940;51.052;13.678;2023-09-19T00:58:02;3.83;;;1.90;;
3849;SDS011;1940;51.052;13.678;2023-09-19T01:00:31;9.63;;;2.10;;
3849;SDS011;1940;51.052;13.678;2023-09-19T01:02:58;5.20;;;2.40;;
3849;SDS011;1940;51.052;13.678;2023-09-19T01:05:26;3.87;;;2.50;;
3849;SDS011;1940;51.052;13.678;2023-09-19T01:07:52;3.60;;;2.40;;
3849;SDS011;1940;51.052;13.678;2023-09-19T01:10:18;5.50;;;2.83;;
3849;SDS011;1940;51.052;13.678;2023-09-19T01:12:52;5.27;;;2.60;;
3849;SDS011;1940;51.052;13.678;2023-09-19T01:15:46;6.03;;;2.70;;
3849;SDS011;1940;51.052;13.678;2023-09-19T01:23:48;5.20;;;2.73;;
3849;SDS011;1940;51.052;13.678;2023-09-19T01:29:39;3.57;;;2.17;;
3849;SDS011;1940;51.052;13.678;2023-09-19T01:32:09;4.90;;;2.60;;
3849;SDS011;1940;51.052;13.678;2023-09-19T01:34:46;8.53;;;3.07;;
3849;SDS011;1940;51.052;13.678;2023-09-19T01:37:13;5.30;;;2.80;;
3849;SDS011;1940;51.052;13.678;2023-09-19T01:39:39;4.90;;;2.97;;
3849;SDS011;1940;51.052;13.678;2023-09-19T01:42:12;6.50;;;3.20;;
3849;SDS011;1940;51.052;13.678;2023-09-19T01:47:50;5.13;;;3.17;;
3849;SDS011;1940;51.052;13.678;2023-09-19T01:50:30;8.33;;;3.50;;
3849;SDS011;1940;51.052;13.678;2023-09-19T01:52:59;7.43;;;3.90;;
3849;SDS011;1940;51.052;13.678;2023-09-19T01:55:29;7.83;;;3.50;;
3849;SDS011;1940;51.052;13.678;2023-09-19T01:58:01;11.40;;;3.67;;
3849;SDS011;1940;51.052;13.678;2023-09-19T02:00:47;6.30;;;3.70;;
3849;SDS011;1940;51.052;13.678;2023-09-19T02:03:17;5.07;;;3.40;;
3849;SDS011;1940;51.052;13.678;2023-09-19T02:05:48;9.60;;;2.80;;
3849;SDS011;1940;51.052;13.678;2023-09-19T02:08:17;5.73;;;3.13;;
3849;SDS011;1940;51.052;13.678;2023-09-19T02:10:44;7.97;;;3.53;;
3849;SDS011;1940;51.052;13.678;2023-09-19T02:13:14;7.10;;;2.93;;
3849;SDS011;1940;51.052;13.678;2023-09-19T02:15:44;5.20;;;2.57;;
3849;SDS011;1940;51.052;13.678;2023-09-19T02:18:09;6.70;;;3.10;;
3849;SDS011;1940;51.052;13.678;2023-09-19T02:20:36;9.07;;;3.10;;
3849;SDS011;1940;51.052;13.678;2023-09-19T02:23:02;8.73;;;2.97;;
3849;SDS011;1940;51.052;13.678;2023-09-19T02:25:28;3.00;;;1.77;;
3849;SDS011;1940;51.052;13.678;2023-09-19T02:27:54;5.27;;;2.00;;
3849;SDS011;1940;51.052;13.678;2023-09-19T02:30:22;4.30;;;1.97;;
3849;SDS011;1940;51.052;13.678;2023-09-19T02:32:48;12.60;;;2.13;;
3849;SDS011;1940;51.052;13.678;2023-09-19T02:35:14;3.17;;;1.70;;
3849;SDS011;1940;51.052;13.678;2023-09-19T02:37:41;3.90;;;1.50;;
3849;SDS011;1940;51.052;13.678;2023-09-19T02:40:06;4.40;;;1.77;;
3849;SDS011;1940;51.052;13.678;2023-09-19T02:42:43;2.93;;;1.73;;
3849;SDS011;1940;51.052;13.678;2023-09-19T02:45:14;5.57;;;1.70;;
3849;SDS011;1940;51.052;13.678;2023-09-19T02:47:44;5.50;;;1.90;;
3849;SDS011;1940;51.052;13.678;2023-09-19T02:50:10;9.83;;;2.03;;
3849;SDS011;1940;51.052;13.678;2023-09-19T02:52:36;8.73;;;2.40;;
3849;SDS011;1940;51.052;13.678;2023-09-19T02:55:02;18.10;;;2.47;;
3849;SDS011;1940;51.052;13.678;2023-09-19T02:57:30;9.93;;;2.37;;
3849;SDS011;1940;51.052;13.678;2023-09-19T02:59:58;4.27;;;2.20;;
3849;SDS011;1940;51.052;13.678;2023-09-19T03:02:25;7.10;;;2.20;;
3849;SDS011;1940;51.052;13.678;2023-09-19T03:04:52;6.83;;;2.27;;
3849;SDS011;1940;51.052;13.678;2023-09-19T03:07:18;3.73;;;1.90;;
3849;SDS011;1940;51.052;13.678;2023-09-19T03:09:44;2.40;;;1.50;;
3849;SDS011;1940;51.052;13.678;2023-09-19T03:12:10;3.50;;;1.50;;
3849;SDS011;1940;51.052;13.678;2023-09-19T03:14:36;2.60;;;1.60;;
3849;SDS011;1940;51.052;13.678;2023-09-19T03:17:01;2.37;;;1.73;;
3849;SDS011;1940;51.052;13.678;2023-09-19T03:19:30;2.80;;;1.70;;
3849;SDS011;1940;51.052;13.678;2023-09-19T03:21:58;2.20;;;1.40;;
3849;SDS011;1940;51.052;13.678;2023-09-19T03:24:24;6.87;;;1.50;;
3849;SDS011;1940;51.052;13.678;2023-09-19T03:26:49;3.50;;;2.10;;
3849;SDS011;1940;51.052;13.678;2023-09-19T03:29:15;2.70;;;1.53;;
3849;SDS011;1940;51.052;13.678;2023-09-19T03:31:42;5.97;;;1.87;;
3849;SDS011;1940;51.052;13.678;2023-09-19T03:34:07;4.37;;;2.00;;
3849;SDS011;1940;51.052;13.678;2023-09-19T03:36:35;2.03;;;1.20;;
3849;SDS011;1940;51.052;13.678;2023-09-19T03:39:01;3.83;;;1.67;;
3849;SDS011;1940;51.052;13.678;2023-09-19T03:41:30;2.23;;;1.50;;
3849;SDS011;1940;51.052;13.678;2023-09-19T03:43:56;3.10;;;1.70;;
3849;SDS011;1940;51.052;13.678;2023-09-19T03:46:22;2.80;;;2.07;;
3849;SDS011;1940;51.052;13.678;2023-09-19T03:48:47;2.80;;;1.40;;
3849;SDS011;1940;51.052;13.678;2023-09-19T03:51:13;4.30;;;1.80;;
3849;SDS011;1940;51.052;13.678;2023-09-19T03:53:38;2.90;;;1.30;;
3849;SDS011;1940;51.052;13.678;2023-09-19T03:56:04;2.63;;;1.60;;
3849;SDS011;1940;51.052;13.678;2023-09-19T03:58:29;1.83;;;1.33;;
3849;SDS011;1940;51.052;13.678;2023-09-19T04:00:55;6.33;;;1.80;;
3849;SDS011;1940;51.052;13.678;2023-09-19T04:03:22;1.90;;;1.40;;
3849;SDS011;1940;51.052;13.678;2023-09-19T04:05:48;2.77;;;1.60;;
3849;SDS011;1940;51.052;13.678;2023-09-19T04:08:13;3.47;;;1.53;;
3849;SDS011;1940;51.052;13.678;2023-09-19T04:10:41;4.73;;;1.90;;
3849;SDS011;1940;51.052;13.678;2023-09-19T04:13:08;3.27;;;1.60;;
3849;SDS011;1940;51.052;13.678;2023-09-19T04:15:33;3.40;;;1.70;;
3849;SDS011;1940;51.052;13.678;2023-09-19T04:17:59;4.20;;;1.47;;
3849;SDS011;1940;51.052;13.678;2023-09-19T04:20:24;3.73;;;1.50;;
3849;SDS011;1940;51.052;13.678;2023-09-19T04:22:50;3.90;;;1.70;;
3849;SDS011;1940;51.052;13.678;2023-09-19T04:25:16;3.17;;;1.50;;
3849;SDS011;1940;51.052;13.678;2023-09-19T04:27:41;4.00;;;2.03;;
3849;SDS011;1940;51.052;13.678;2023-09-19T04:30:09;3.73;;;1.80;;
3849;SDS011;1940;51.052;13.678;2023-09-19T04:32:36;10.63;;;1.90;;
3849;SDS011;1940;51.052;13.678;2023-09-19T04:35:08;4.60;;;1.87;;
3849;SDS011;1940;51.052;13.678;2023-09-19T04:37:38;2.40;;;1.77;;
3849;SDS011;1940;51.052;13.678;2023-09-19T04:40:06;3.90;;;1.70;;
3849;SDS011;1940;51.052;13.678;2023-09-19T04:42:37;3.03;;;1.50;;
3849;SDS011;1940;51.052;13.678;2023-09-19T04:45:06;3.87;;;1.80;;
3849;SDS011;1940;51.052;13.678;2023-09-19T04:47:32;3.77;;;1.83;;
3849;SDS011;1940;51.052;13.678;2023-09-19T04:49:57;3.70;;;1.70;;
3849;SDS011;1940;51.052;13.678;2023-09-19T04:52:24;2.50;;;1.50;;
3849;SDS011;1940;51.052;13.678;2023-09-19T04:54:50;4.17;;;1.70;;
3849;SDS011;1940;51.052;13.678;2023-09-19T04:57:15;2.93;;;1.80;;
3849;SDS011;1940;51.052;13.678;2023-09-19T04:59:41;3.30;;;1.73;;
3849;SDS011;1940;51.052;13.678;2023-09-19T05:02:06;3.23;;;1.87;;
3849;SDS011;1940;51.052;13.678;2023-09-19T05:04:33;2.13;;;1.40;;
3849;SDS011;1940;51.052;13.678;2023-09-19T05:07:00;3.77;;;1.50;;
3849;SDS011;1940;51.052;13.678;2023-09-19T05:09:28;8.40;;;2.50;;
3849;SDS011;1940;51.052;13.678;2023-09-19T05:11:54;4.90;;;1.70;;
3849;SDS011;1940;51.052;13.678;2023-09-19T05:14:19;2.80;;;1.60;;
3849;SDS011;1940;51.052;13.678;2023-09-19T05:16:46;3.67;;;1.60;;
3849;SDS011;1940;51.052;13.678;2023-09-19T05:19:12;5.10;;;1.73;;
3849;SDS011;1940;51.052;13.678;2023-09-19T05:21:37;2.77;;;1.60;;
3849;SDS011;1940;51.052;13.678;2023-09-19T05:24:05;2.10;;;1.60;;
3849;SDS011;1940;51.052;13.678;2023-09-19T05:26:32;5.10;;;1.80;;
3849;SDS011;1940;51.052;13.678;2023-09-19T05:28:57;3.70;;;1.67;;
3849;SDS011;1940;51.052;13.678;2023-09-19T05:31:23;3.53;;;1.30;;
3849;SDS011;1940;51.052;13.678;2023-09-19T05:33:49;3.77;;;1.77;;
3849;SDS011;1940;51.052;13.678;2023-09-19T05:36:15;3.83;;;2.30;;
3849;SDS011;1940;51.052;13.678;2023-09-19T05:38:40;2.20;;;1.50;;
3849;SDS011;1940;51.052;13.678;2023-09-19T05:41:07;2.90;;;1.70;;
3849;SDS011;1940;51.052;13.678;2023-09-19T05:43:34;3.87;;;1.80;;
3849;SDS011;1940;51.052;13.678;2023-09-19T05:46:02;2.60;;;1.70;;
3849;SDS011;1940;51.052;13.678;2023-09-19T05:48:28;2.20;;;1.60;;
3849;SDS011;1940;51.052;13.678;2023-09-19T05:50:53;3.60;;;1.80;;
3849;SDS011;1940;51.052;13.678;2023-09-19T05:53:19;2.37;;;1.40;;
3849;SDS011;1940;51.052;13.678;2023-09-19T05:55:44;3.40;;;1.70;;
3849;SDS011;1940;51.052;13.678;2023-09-19T05:58:10;3.33;;;1.83;;
3849;SDS011;1940;51.052;13.678;2023-09-19T06:00:39;3.10;;;1.77;;
3849;SDS011;1940;51.052;13.678;2023-09-19T06:03:06;2.43;;;1.60;;
3849;SDS011;1940;51.052;13.678;2023-09-19T06:05:33;3.77;;;1.40;;
3849;SDS011;1940;51.052;13.678;2023-09-19T06:07:58;4.07;;;1.53;;
3849;SDS011;1940;51.052;13.678;2023-09-19T06:10:32;3.90;;;1.57;;
3849;SDS011;1940;51.052;13.678;2023-09-19T06:12:59;3.33;;;1.83;;
3849;SDS011;1940;51.052;13.678;2023-09-19T06:15:29;3.30;;;1.47;;
3849;SDS011;1940;51.052;13.678;2023-09-19T06:17:57;3.60;;;1.87;;
3849;SDS011;1940;51.052;13.678;2023-09-19T06:20:24;2.70;;;1.70;;
3849;SDS011;1940;51.052;13.678;2023-09-19T06:22:51;6.20;;;1.87;;
3849;SDS011;1940;51.052;13.678;2023-09-19T06:25:17;4.93;;;1.97;;
3849;SDS011;1940;51.052;13.678;2023-09-19T06:27:47;5.33;;;2.70;;
3849;SDS011;1940;51.052;13.678;2023-09-19T06:30:14;6.57;;;1.60;;
3849;SDS011;1940;51.052;13.678;2023-09-19T06:32:40;3.63;;;1.80;;
3849;SDS011;1940;51.052;13.678;2023-09-19T06:35:09;2.90;;;1.60;;
3849;SDS011;1940;51.052;13.678;2023-09-19T06:37:36;3.87;;;1.60;;
3849;SDS011;1940;51.052;13.678;2023-09-19T06:40:09;4.10;;;1.70;;
3849;SDS011;1940;51.052;13.678;2023-09-19T06:42:39;3.93;;;1.50;;
3849;SDS011;1940;51.052;13.678;2023-09-19T06:45:12;3.87;;;1.40;;
3849;SDS011;1940;51.052;13.678;2023-09-19T06:47:42;4.10;;;1.40;;
3849;SDS011;1940;51.052;13.678;2023-09-19T06:50:09;3.67;;;1.60;;
3849;SDS011;1940;51.052;13.678;2023-09-19T06:52:38;4.77;;;1.47;;
3849;SDS011;1940;51.052;13.678;2023-09-19T06:55:05;3.23;;;1.57;;
3849;SDS011;1940;51.052;13.678;2023-09-19T06:57:31;4.70;;;1.80;;
3849;SDS011;1940;51.052;13.678;2023-09-19T06:59:57;3.33;;;1.60;;
3849;SDS011;1940;51.052;13.678;2023-09-19T07:02:22;1.93;;;1.37;;
3849;SDS011;1940;51.052;13.678;2023-09-19T07:04:48;2.17;;;1.43;;
3849;SDS011;1940;51.052;13.678;2023-09-19T07:07:14;3.00;;;1.37;;
3849;SDS011;1940;51.052;13.678;2023-09-19T07:09:40;2.93;;;1.23;;
3849;SDS011;1940;51.052;13.678;2023-09-19T07:12:07;2.73;;;1.40;;
3849;SDS011;1940;51.052;13.678;2023-09-19T07:14:33;2.17;;;1.37;;
3849;SDS011;1940;51.052;13.678;2023-09-19T07:16:58;6.80;;;1.50;;
3849;SDS011;1940;51.052;13.678;2023-09-19T07:19:25;2.57;;;1.83;;
3849;SDS011;1940;51.052;13.678;2023-09-19T07:21:53;2.13;;;1.43;;
3849;SDS011;1940;51.052;13.678;2023-09-19T07:24:18;3.03;;;1.23;;
3849;SDS011;1940;51.052;13.678;2023-09-19T07:26:45;3.17;;;1.20;;
3849;SDS011;1940;51.052;13.678;2023-09-19T07:29:10;2.90;;;1.20;;
3849;SDS011;1940;51.052;13.678;2023-09-19T07:31:36;3.13;;;1.23;;
3849;SDS011;1940;51.052;13.678;2023-09-19T07:34:01;1.37;;;0.97;;
3849;SDS011;1940;51.052;13.678;2023-09-19T07:36:29;3.13;;;1.40;;
3849;SDS011;1940;51.052;13.678;2023-09-19T07:38:54;3.63;;;1.10;;
3849;SDS011;1940;51.052;13.678;2023-09-19T07:41:22;2.40;;;1.20;;
3849;SDS011;1940;51.052;13.678;2023-09-19T07:43:48;1.10;;;1.00;;
3849;SDS011;1940;51.052;13.678;2023-09-19T07:46:17;2.33;;;1.10;;
3849;SDS011;1940;51.052;13.678;2023-09-19T07:48:42;2.17;;;1.20;;
3849;SDS011;1940;51.052;13.678;2023-09-19T07:51:13;1.77;;;1.10;;
3849;SDS011;1940;51.052;13.678;2023-09-19T07:53:40;3.50;;;1.40;;
3849;SDS011;1940;51.052;13.678;2023-09-19T07:56:09;1.93;;;1.10;;
3849;SDS011;1940;51.052;13.678;2023-09-19T07:58:35;2.03;;;1.20;;
3849;SDS011;1940;51.052;13.678;2023-09-19T08:01:04;2.13;;;1.77;;
3849;SDS011;1940;51.052;13.678;2023-09-19T08:03:31;1.30;;;0.90;;
3849;SDS011;1940;51.052;13.678;2023-09-19T08:05:57;1.30;;;1.10;;
3849;SDS011;1940;51.052;13.678;2023-09-19T08:08:23;1.23;;;1.10;;
3849;SDS011;1940;51.052;13.678;2023-09-19T08:10:52;6.43;;;0.97;;
3849;SDS011;1940;51.052;13.678;2023-09-19T08:13:22;1.03;;;0.90;;
3849;SDS011;1940;51.052;13.678;2023-09-19T08:15:48;2.23;;;1.20;;
3849;SDS011;1940;51.052;13.678;2023-09-19T08:18:14;1.63;;;0.90;;
3849;SDS011;1940;51.052;13.678;2023-09-19T08:20:41;1.97;;;1.30;;
3849;SDS011;1940;51.052;13.678;2023-09-19T08:23:11;2.20;;;1.20;;
3849;SDS011;1940;51.052;13.678;2023-09-19T08:25:37;1.03;;;0.93;;
3849;SDS011;1940;51.052;13.678;2023-09-19T08:28:03;1.57;;;0.90;;
3849;SDS011;1940;51.052;13.678;2023-09-19T08:30:33;1.83;;;1.10;;
3849;SDS011;1940;51.052;13.678;2023-09-19T08:33:00;2.20;;;1.10;;
3849;SDS011;1940;51.052;13.678;2023-09-19T08:35:29;1.20;;;0.83;;
3849;SDS011;1940;51.052;13.678;2023-09-19T08:37:54;1.10;;;1.00;;
3849;SDS011;1940;51.052;13.678;2023-09-19T08:40:20;1.90;;;1.03;;
3849;SDS011;1940;51.052;13.678;2023-09-19T08:42:47;1.30;;;1.00;;
3849;SDS011;1940;51.052;13.678;2023-09-19T08:45:19;2.43;;;0.93;;
3849;SDS011;1940;51.052;13.678;2023-09-19T08:47:47;1.83;;;1.20;;
3849;SDS011;1940;51.052;13.678;2023-09-19T08:50:26;1.37;;;1.07;;
3849;SDS011;1940;51.052;13.678;2023-09-19T08:52:55;0.83;;;0.83;;
3849;SDS011;1940;51.052;13.678;2023-09-19T08:55:26;2.20;;;1.00;;
3849;SDS011;1940;51.052;13.678;2023-09-19T08:57:58;2.30;;;1.07;;
3849;SDS011;1940;51.052;13.678;2023-09-19T09:00:27;2.90;;;1.00;;
3849;SDS011;1940;51.052;13.678;2023-09-19T09:02:54;1.33;;;0.93;;
3849;SDS011;1940;51.052;13.678;2023-09-19T09:05:21;2.40;;;1.10;;
3849;SDS011;1940;51.052;13.678;2023-09-19T09:07:51;1.57;;;1.00;;
3849;SDS011;1940;51.052;13.678;2023-09-19T09:10:20;1.47;;;1.37;;
3849;SDS011;1940;51.052;13.678;2023-09-19T09:12:50;1.33;;;1.10;;
3849;SDS011;1940;51.052;13.678;2023-09-19T09:15:21;2.07;;;1.00;;
3849;SDS011;1940;51.052;13.678;2023-09-19T09:17:51;1.10;;;1.00;;
3849;SDS011;1940;51.052;13.678;2023-09-19T09:20:20;1.40;;;1.07;;
3849;SDS011;1940;51.052;13.678;2023-09-19T09:22:52;1.20;;;1.10;;
3849;SDS011;1940;51.052;13.678;2023-09-19T09:25:19;2.40;;;1.27;;
3849;SDS011;1940;51.052;13.678;2023-09-19T09:27:58;4.20;;;1.10;;
3849;SDS011;1940;51.052;13.678;2023-09-19T09:30:33;1.20;;;1.10;;
3849;SDS011;1940;51.052;13.678;2023-09-19T09:33:10;1.30;;;1.20;;
3849;SDS011;1940;51.052;13.678;2023-09-19T09:35:46;2.83;;;1.30;;
3849;SDS011;1940;51.052;13.678;2023-09-19T09:38:17;1.73;;;1.30;;
3849;SDS011;1940;51.052;13.678;2023-09-19T09:40:49;2.47;;;1.20;;
3849;SDS011;1940;51.052;13.678;2023-09-19T09:43:33;1.93;;;1.43;;
3849;SDS011;1940;51.052;13.678;2023-09-19T09:46:09;2.30;;;1.17;;
3849;SDS011;1940;51.052;13.678;2023-09-19T09:51:58;1.50;;;1.30;;
3849;SDS011;1940;51.052;13.678;2023-09-19T09:54:57;1.67;;;1.20;;
3849;SDS011;1940;51.052;13.678;2023-09-19T09:57:32;1.10;;;1.00;;
3849;SDS011;1940;51.052;13.678;2023-09-19T09:59:59;2.00;;;1.27;;
3849;SDS011;1940;51.052;13.678;2023-09-19T10:02:43;1.27;;;1.03;;
3849;SDS011;1940;51.052;13.678;2023-09-19T10:05:15;2.60;;;1.10;;
3849;SDS011;1940;51.052;13.678;2023-09-19T10:07:45;2.67;;;1.13;;
3849;SDS011;1940;51.052;13.678;2023-09-19T10:10:34;2.77;;;1.00;;
3849;SDS011;1940;51.052;13.678;2023-09-19T10:13:24;1.17;;;1.07;;
3849;SDS011;1940;51.052;13.678;2023-09-19T10:15:54;2.30;;;1.10;;
3849;SDS011;1940;51.052;13.678;2023-09-19T10:18:24;1.50;;;1.17;;
3849;SDS011;1940;51.052;13.678;2023-09-19T10:20:51;1.00;;;0.90;;
3849;SDS011;1940;51.052;13.678;2023-09-19T10:23:18;2.67;;;1.00;;
3849;SDS011;1940;51.052;13.678;2023-09-19T10:25:48;1.80;;;1.10;;
3849;SDS011;1940;51.052;13.678;2023-09-19T10:28:15;1.70;;;1.30;;
3849;SDS011;1940;51.052;13.678;2023-09-19T10:30:46;1.80;;;1.10;;
3849;SDS011;1940;51.052;13.678;2023-09-19T10:33:15;1.77;;;0.90;;
3849;SDS011;1940;51.052;13.678;2023-09-19T10:35:46;2.50;;;1.13;;
3849;SDS011;1940;51.052;13.678;2023-09-19T10:38:22;4.20;;;1.03;;
3849;SDS011;1940;51.052;13.678;2023-09-19T10:40:53;1.20;;;1.10;;
3849;SDS011;1940;51.052;13.678;2023-09-19T10:43:20;1.30;;;1.20;;
3849;SDS011;1940;51.052;13.678;2023-09-19T10:45:47;1.80;;;1.17;;
3849;SDS011;1940;51.052;13.678;2023-09-19T10:48:15;1.50;;;1.00;;
3849;SDS011;1940;51.052;13.678;2023-09-19T10:53:56;1.90;;;1.03;;
3849;SDS011;1940;51.052;13.678;2023-09-19T10:56:29;1.30;;;1.20;;
3849;SDS011;1940;51.052;13.678;2023-09-19T11:04:26;1.53;;;1.13;;
3849;SDS011;1940;51.052;13.678;2023-09-19T11:09:45;3.70;;;1.30;;
3849;SDS011;1940;51.052;13.678;2023-09-19T11:14:56;1.30;;;1.20;;
3849;SDS011;1940;51.052;13.678;2023-09-19T11:30:46;2.47;;;1.50;;
3849;SDS011;1940;51.052;13.678;2023-09-19T11:36:07;2.00;;;1.60;;
3849;SDS011;1940;51.052;13.678;2023-09-19T11:49:15;1.80;;;1.50;;
3849;SDS011;1940;51.052;13.678;2023-09-19T11:51:46;3.03;;;1.70;;
3849;SDS011;1940;51.052;13.678;2023-09-19T11:54:13;1.80;;;1.60;;
3849;SDS011;1940;51.052;13.678;2023-09-19T11:56:50;1.90;;;1.60;;
3849;SDS011;1940;51.052;13.678;2023-09-19T12:01:58;1.70;;;1.37;;
3849;SDS011;1940;51.052;13.678;2023-09-19T12:04:33;1.97;;;1.37;;
3849;SDS011;1940;51.052;13.678;2023-09-19T12:07:03;2.83;;;1.70;;
3849;SDS011;1940;51.052;13.678;2023-09-19T12:09:30;2.20;;;1.60;;
3849;SDS011;1940;51.052;13.678;2023-09-19T12:11:57;3.23;;;1.60;;
3849;SDS011;1940;51.052;13.678;2023-09-19T12:14:23;3.20;;;1.50;;
3849;SDS011;1940;51.052;13.678;2023-09-19T12:16:51;4.83;;;1.80;;
3849;SDS011;1940;51.052;13.678;2023-09-19T12:19:20;2.70;;;1.60;;
3849;SDS011;1940;51.052;13.678;2023-09-19T12:22:05;2.00;;;1.30;;
3849;SDS011;1940;51.052;13.678;2023-09-19T12:24:31;2.20;;;1.23;;
3849;SDS011;1940;51.052;13.678;2023-09-19T12:27:04;2.90;;;1.47;;
3849;SDS011;1940;51.052;13.678;2023-09-19T12:29:32;4.83;;;1.37;;
3849;SDS011;1940;51.052;13.678;2023-09-19T12:32:11;1.77;;;1.30;;
3849;SDS011;1940;51.052;13.678;2023-09-19T12:34:37;5.50;;;1.50;;
3849;SDS011;1940;51.052;13.678;2023-09-19T12:37:11;2.70;;;1.37;;
3849;SDS011;1940;51.052;13.678;2023-09-19T12:39:44;2.03;;;1.40;;
3849;SDS011;1940;51.052;13.678;2023-09-19T12:42:14;2.07;;;1.40;;
3849;SDS011;1940;51.052;13.678;2023-09-19T12:44:45;5.10;;;1.30;;
3849;SDS011;1940;51.052;13.678;2023-09-19T12:47:17;2.40;;;1.23;;
3849;SDS011;1940;51.052;13.678;2023-09-19T12:55:23;2.07;;;1.20;;
3849;SDS011;1940;51.052;13.678;2023-09-19T12:57:56;1.93;;;1.30;;
3849;SDS011;1940;51.052;13.678;2023-09-19T13:00:31;2.23;;;1.60;;
3849;SDS011;1940;51.052;13.678;2023-09-19T13:05:59;5.40;;;1.60;;
3849;SDS011;1940;51.052;13.678;2023-09-19T13:08:34;2.63;;;1.33;;
3849;SDS011;1940;51.052;13.678;2023-09-19T13:16:18;1.93;;;1.50;;
3849;SDS011;1940;51.052;13.678;2023-09-19T13:18:51;3.67;;;1.50;;
3849;SDS011;1940;51.052;13.678;2023-09-19T13:21:29;3.40;;;1.40;;
3849;SDS011;1940;51.052;13.678;2023-09-19T13:26:56;4.13;;;1.87;;
3849;SDS011;1940;51.052;13.678;2023-09-19T13:29:23;3.47;;;1.60;;
3849;SDS011;1940;51.052;13.678;2023-09-19T13:31:49;2.53;;;1.30;;
3849;SDS011;1940;51.052;13.678;2023-09-19T13:34:16;2.00;;;1.50;;
3849;SDS011;1940;51.052;13.678;2023-09-19T13:36:42;2.83;;;1.80;;
3849;SDS011;1940;51.052;13.678;2023-09-19T13:39:09;1.90;;;1.40;;
3849;SDS011;1940;51.052;13.678;2023-09-19T13:41:37;3.03;;;2.13;;
3849;SDS011;1940;51.052;13.678;2023-09-19T13:44:03;3.60;;;1.70;;
3849;SDS011;1940;51.052;13.678;2023-09-19T13:46:29;2.00;;;1.50;;
3849;SDS011;1940;51.052;13.678;2023-09-19T13:48:58;3.57;;;1.70;;
3849;SDS011;1940;51.052;13.678;2023-09-19T13:51:25;2.97;;;1.67;;
3849;SDS011;1940;51.052;13.678;2023-09-19T13:53:51;3.57;;;1.57;;
3849;SDS011;1940;51.052;13.678;2023-09-19T13:56:17;4.83;;;1.70;;
3849;SDS011;1940;51.052;13.678;2023-09-19T13:58:42;2.50;;;1.47;;
3849;SDS011;1940;51.052;13.678;2023-09-19T14:01:08;4.73;;;1.80;;
3849;SDS011;1940;51.052;13.678;2023-09-19T14:03:38;2.77;;;1.50;;
3849;SDS011;1940;51.052;13.678;2023-09-19T14:06:11;7.70;;;1.70;;
3849;SDS011;1940;51.052;13.678;2023-09-19T14:08:37;2.30;;;1.43;;
3849;SDS011;1940;51.052;13.678;2023-09-19T14:11:07;3.70;;;1.60;;
3849;SDS011;1940;51.052;13.678;2023-09-19T14:13:35;2.90;;;1.93;;
3849;SDS011;1940;51.052;13.678;2023-09-19T14:16:04;2.57;;;1.60;;
3849;SDS011;1940;51.052;13.678;2023-09-19T14:18:30;6.40;;;1.73;;
3849;SDS011;1940;51.052;13.678;2023-09-19T14:20:57;8.00;;;1.73;;
3849;SDS011;1940;51.052;13.678;2023-09-19T14:23:22;1.80;;;1.40;;
3849;SDS011;1940;51.052;13.678;2023-09-19T14:25:48;5.23;;;1.67;;
3849;SDS011;1940;51.052;13.678;2023-09-19T14:28:15;2.80;;;1.83;;
3849;SDS011;1940;51.052;13.678;2023-09-19T14:30:40;2.77;;;1.70;;
3849;SDS011;1940;51.052;13.678;2023-09-19T14:33:06;4.73;;;1.90;;
3849;SDS011;1940;51.052;13.678;2023-09-19T14:35:32;2.07;;;1.70;;
3849;SDS011;1940;51.052;13.678;2023-09-19T14:37:58;10.60;;;2.00;;
3849;SDS011;1940;51.052;13.678;2023-09-19T14:40:25;4.00;;;2.00;;
3849;SDS011;1940;51.052;13.678;2023-09-19T14:42:51;5.00;;;2.30;;
3849;SDS011;1940;51.052;13.678;2023-09-19T14:45:18;6.00;;;1.97;;
3849;SDS011;1940;51.052;13.678;2023-09-19T14:47:45;3.63;;;1.97;;
3849;SDS011;1940;51.052;13.678;2023-09-19T14:50:11;2.80;;;1.83;;
3849;SDS011;1940;51.052;13.678;2023-09-19T14:52:37;2.90;;;1.83;;
3849;SDS011;1940;51.052;13.678;2023-09-19T14:55:04;2.30;;;1.80;;
3849;SDS011;1940;51.052;13.678;2023-09-19T14:57:31;2.70;;;1.80;;
3849;SDS011;1940;51.052;13.678;2023-09-19T14:59:57;2.70;;;1.90;;
3849;SDS011;1940;51.052;13.678;2023-09-19T15:02:23;3.43;;;1.90;;
3849;SDS011;1940;51.052;13.678;2023-09-19T15:04:51;3.47;;;2.37;;
3849;SDS011;1940;51.052;13.678;2023-09-19T15:07:17;5.00;;;2.60;;
3849;SDS011;1940;51.052;13.678;2023-09-19T15:09:43;2.50;;;1.90;;
3849;SDS011;1940;51.052;13.678;2023-09-19T15:12:09;3.23;;;2.00;;
3849;SDS011;1940;51.052;13.678;2023-09-19T15:14:39;3.83;;;2.63;;
3849;SDS011;1940;51.052;13.678;2023-09-19T15:17:07;4.30;;;2.60;;
3849;SDS011;1940;51.052;13.678;2023-09-19T15:19:33;5.87;;;3.50;;
3849;SDS011;1940;51.052;13.678;2023-09-19T15:21:59;5.53;;;2.23;;
3849;SDS011;1940;51.052;13.678;2023-09-19T15:24:26;3.30;;;2.50;;
3849;SDS011;1940;51.052;13.678;2023-09-19T15:26:52;5.60;;;2.10;;
3849;SDS011;1940;51.052;13.678;2023-09-19T15:29:18;3.37;;;1.80;;
3849;SDS011;1940;51.052;13.678;2023-09-19T15:31:44;4.50;;;2.10;;
3849;SDS011;1940;51.052;13.678;2023-09-19T15:34:10;4.90;;;2.23;;
3849;SDS011;1940;51.052;13.678;2023-09-19T15:36:39;5.13;;;2.10;;
3849;SDS011;1940;51.052;13.678;2023-09-19T15:39:08;2.83;;;1.97;;
3849;SDS011;1940;51.052;13.678;2023-09-19T15:41:40;3.30;;;2.00;;
3849;SDS011;1940;51.052;13.678;2023-09-19T15:44:14;4.70;;;2.13;;
3849;SDS011;1940;51.052;13.678;2023-09-19T15:46:40;6.43;;;2.33;;
3849;SDS011;1940;51.052;13.678;2023-09-19T15:49:06;2.33;;;1.90;;
3849;SDS011;1940;51.052;13.678;2023-09-19T15:51:33;4.73;;;2.13;;
3849;SDS011;1940;51.052;13.678;2023-09-19T15:54:01;3.70;;;2.03;;
3849;SDS011;1940;51.052;13.678;2023-09-19T15:56:31;3.43;;;1.93;;
3849;SDS011;1940;51.052;13.678;2023-09-19T15:58:59;3.50;;;1.97;;
3849;SDS011;1940;51.052;13.678;2023-09-19T16:01:25;3.77;;;2.43;;
3849;SDS011;1940;51.052;13.678;2023-09-19T16:03:51;3.53;;;1.90;;
3849;SDS011;1940;51.052;13.678;2023-09-19T16:06:22;3.70;;;2.13;;
3849;SDS011;1940;51.052;13.678;2023-09-19T16:08:50;2.47;;;2.03;;
3849;SDS011;1940;51.052;13.678;2023-09-19T16:11:17;2.80;;;1.90;;
3849;SDS011;1940;51.052;13.678;2023-09-19T16:13:44;3.23;;;2.10;;
3849;SDS011;1940;51.052;13.678;2023-09-19T16:16:12;4.00;;;2.33;;
3849;SDS011;1940;51.052;13.678;2023-09-19T16:18:51;4.30;;;2.03;;
3849;SDS011;1940;51.052;13.678;2023-09-19T16:21:22;5.10;;;2.33;;
3849;SDS011;1940;51.052;13.678;2023-09-19T16:23:52;3.17;;;2.07;;
3849;SDS011;1940;51.052;13.678;2023-09-19T16:26:21;5.57;;;2.37;;